SWJX weather

Fazenda das Perobas Airport
Prudente De Morais, Minas Gerais, Brazil

Public forecast

Using degrees Celsius for public forecast. Weather courtesy of forecast.io.

METAR (pilot weather report)

Closest report is Tancredo Neves International Airport, 12.8 nm (23.7 km) SE. Retrieved 2019/07/22 19:00 UTC (31 minutes ago):

SBCF 221900Z 07009KT 9999 SCT045 22/09 Q1024

TAF (pilot weather forecast)

Closest forecast is Tancredo Neves International Airport, 12.8 nm (23.7 km) SE. Retrieved 2019/07/22 18:00 UTC (2 hours ago):

TAF SBCF 221600Z 2218/2318 06008KT 9999 SCT040 TN12/2307Z TX21/2318Z BECMG 2222/2224 09008KT CAVOK BECMG 2313/2315 05010KT SCT040 RMK PEH